CheckWX is a tool to help pilots better visualize weather data.  It is not intended as a substitute for an official pre-flight weather briefing.

06:34:44 UTC

KGSB METAR
Seymour Johnson AFB Airport
Goldsboro, North Carolina, USA
Current

24 mins ago

KGSB 260611Z AUTO 00000KT 10SM OVC041 15/15 A2984 RMK AO2 SLP107 $
Observed
Feb-26 @ 06:11 UTC
Visibility
10 SM
Flight Rules
VFR
Cloud Levels
  • Overcast at 4,100' AGL
Temperature
15°C / 59°F
Dewpoint
15°C / 59°F
Humidity
100%
Altimeter
29.84" Hg
Pressure
1010.52 hPa
Previous

39 mins ago

KGSB 260556Z AUTO 00000KT 1 3/4SM BR OVC040 14/14 A2984 RMK AO2 VIS 1 1/4V5 SLP108 60001 T01430143 10174 20140 50001 $
Observed
Feb-26 @ 05:56 UTC
Visibility
1 3/4 SM
Flight Rules
IFR
Conditions
Mist
Cloud Levels
  • Overcast at 4,000' AGL
Temperature
14°C / 57°F
Dewpoint
14°C / 57°F
Humidity
100%
Altimeter
29.84" Hg
Pressure
1010.52 hPa
Previous

1 hour ago

KGSB 260529Z AUTO 00000KT 10SM OVC039 15/15 A2984 RMK AO2 SLP107 $
Observed
Feb-26 @ 05:29 UTC
Visibility
10 SM
Flight Rules
VFR
Cloud Levels
  • Overcast at 3,900' AGL
Temperature
15°C / 59°F
Dewpoint
15°C / 59°F
Humidity
100%
Altimeter
29.84" Hg
Pressure
1010.52 hPa